Time;durP1;ratioP1;P1;durP2;ratioP2;P2;SDS_P1;SDS_P2;PMS_P1;PMS_P2;Temp;Humidity;BMP_temperature;BMP_pressure;BME280_temperature;BME280_humidity;BME280_pressure;Samples;Min_cycle;Max_cycle;Signal;HPM_P1;HPM_P2
2023/10/26 00:02:04;;;;;;;1999.90;999.90;;;;;;;;;;5061954;28;20181;-84
2023/10/26 00:04:32;;;;;;;1999.90;999.90;;;;;;;;;;5061000;28;20045;-84
2023/10/26 00:07:00;;;;;;;1999.90;999.90;;;;;;;;;;5063554;28;20055;-84
2023/10/26 00:09:27;;;;;;;1999.90;999.90;;;;;;;;;;5060926;28;20131;-84
2023/10/26 00:11:53;;;;;;;1999.90;999.90;;;;;;;;;;5064835;28;20053;-86
2023/10/26 00:14:20;;;;;;;1999.90;999.90;;;;;;;;;;5059547;28;20067;-84
2023/10/26 00:16:46;;;;;;;1999.90;999.90;;;;;;;;;;5061942;28;20047;-84
2023/10/26 00:19:13;;;;;;;1999.90;999.90;;;;;;;;;;5059862;28;20408;-86
2023/10/26 00:21:41;;;;;;;1999.90;999.90;;;;;;;;;;5061796;28;20400;-86
2023/10/26 00:24:08;;;;;;;1999.90;999.90;;;;;;;;;;5060187;28;20045;-85
2023/10/26 00:26:35;;;;;;;1999.90;999.90;;;;;;;;;;5065124;28;20489;-85
2023/10/26 00:29:01;;;;;;;1999.90;999.90;;;;;;;;;;5065819;28;20056;-87
2023/10/26 00:31:28;;;;;;;1999.90;999.90;;;;;;;;;;5059222;28;20515;-86
2023/10/26 00:33:54;;;;;;;1999.90;999.90;;;;;;;;;;5065211;28;20060;-86
2023/10/26 00:36:21;;;;;;;1999.90;999.90;;;;;;;;;;5060994;28;20459;-85
2023/10/26 00:38:49;;;;;;;1999.90;999.90;;;;;;;;;;5064543;28;20053;-83
2023/10/26 00:41:15;;;;;;;1999.90;999.90;;;;;;;;;;5061890;28;20048;-85
2023/10/26 00:43:42;;;;;;;1999.90;999.90;;;;;;;;;;5061940;28;20044;-84
2023/10/26 00:46:10;;;;;;;1999.90;999.90;;;;;;;;;;5059029;28;20111;-84
2023/10/26 00:48:37;;;;;;;1999.90;999.90;;;;;;;;;;5061498;28;20052;-86
2023/10/26 00:51:03;;;;;;;1999.90;999.90;;;;;;;;;;5061589;28;20453;-84
2023/10/26 00:53:30;;;;;;;1999.90;999.90;;;;;;;;;;5062762;28;20041;-84
2023/10/26 00:55:58;;;;;;;1999.90;999.90;;;;;;;;;;5057494;28;20135;-84
2023/10/26 00:58:26;;;;;;;1999.90;999.90;;;;;;;;;;5065312;28;20045;-85
2023/10/26 01:00:53;;;;;;;1999.90;999.90;;;;;;;;;;5064648;28;20052;-83
2023/10/26 01:03:19;;;;;;;1999.90;999.90;;;;;;;;;;5059558;28;20053;-86
2023/10/26 01:05:46;;;;;;;1999.90;999.90;;;;;;;;;;5057333;28;20493;-83
2023/10/26 01:08:12;;;;;;;1999.90;999.90;;;;;;;;;;5059198;28;20173;-84
2023/10/26 01:10:39;;;;;;;1999.90;999.90;;;;;;;;;;5057423;28;20041;-85
2023/10/26 01:13:07;;;;;;;1999.90;999.90;;;;;;;;;;5063629;28;20041;-84
2023/10/26 01:15:33;;;;;;;1999.90;999.90;;;;;;;;;;5057046;28;20041;-83
2023/10/26 01:18:00;;;;;;;1999.90;999.90;;;;;;;;;;5061294;28;20541;-85
2023/10/26 01:20:26;;;;;;;1999.90;999.90;;;;;;;;;;5058112;28;20045;-84
2023/10/26 01:22:54;;;;;;;1999.90;999.90;;;;;;;;;;5062863;28;20053;-86
2023/10/26 01:25:21;;;;;;;1999.90;999.90;;;;;;;;;;5062676;28;20430;-87
2023/10/26 01:27:47;;;;;;;1999.90;999.90;;;;;;;;;;5061338;28;20059;-87
2023/10/26 01:30:16;;;;;;;1999.90;999.90;;;;;;;;;;5061320;28;20405;-86
2023/10/26 01:32:43;;;;;;;1999.90;999.90;;;;;;;;;;5062466;28;20051;-87
2023/10/26 01:35:10;;;;;;;1999.90;999.90;;;;;;;;;;5060330;28;20053;-87
2023/10/26 01:37:38;;;;;;;1999.90;999.90;;;;;;;;;;5060742;28;20408;-84
2023/10/26 01:40:08;;;;;;;1999.90;999.90;;;;;;;;;;5056688;28;20049;-85
2023/10/26 01:42:34;;;;;;;1999.90;999.90;;;;;;;;;;5061411;28;20036;-86
2023/10/26 01:45:01;;;;;;;1999.90;999.90;;;;;;;;;;5061334;28;20056;-86
2023/10/26 01:47:28;;;;;;;1999.90;999.90;;;;;;;;;;5061542;28;20060;-86
2023/10/26 01:49:54;;;;;;;1999.90;999.90;;;;;;;;;;5057087;28;20041;-84
2023/10/26 01:52:21;;;;;;;1999.90;999.90;;;;;;;;;;5059959;28;20441;-85
2023/10/26 01:54:49;;;;;;;1999.90;999.90;;;;;;;;;;5057699;28;20059;-85
2023/10/26 01:57:17;;;;;;;1999.90;999.90;;;;;;;;;;5060734;28;20059;-84
2023/10/26 01:59:43;;;;;;;1999.90;999.90;;;;;;;;;;5059591;28;20045;-85
2023/10/26 02:02:10;;;;;;;1999.90;999.90;;;;;;;;;;5055996;28;20041;-85
2023/10/26 02:04:36;;;;;;;1999.90;999.90;;;;;;;;;;5061037;28;20040;-85
2023/10/26 02:07:03;;;;;;;1999.90;999.90;;;;;;;;;;5059255;28;20047;-86
2023/10/26 02:09:30;;;;;;;1999.90;999.90;;;;;;;;;;5056602;28;20060;-85
2023/10/26 02:11:56;;;;;;;1999.90;999.90;;;;;;;;;;5055986;28;20504;-86
2023/10/26 02:14:24;;;;;;;1999.90;999.90;;;;;;;;;;5057646;28;20041;-85
2023/10/26 02:16:51;;;;;;;1999.90;999.90;;;;;;;;;;5059024;28;20049;-85
2023/10/26 02:19:18;;;;;;;1999.90;999.90;;;;;;;;;;5055401;28;20067;-84
2023/10/26 02:21:44;;;;;;;1999.90;999.90;;;;;;;;;;5057205;28;20067;-86
2023/10/26 02:24:11;;;;;;;1999.90;999.90;;;;;;;;;;5060054;28;20425;-84
2023/10/26 02:26:37;;;;;;;1999.90;999.90;;;;;;;;;;5061136;28;20049;-86
2023/10/26 02:29:04;;;;;;;1999.90;999.90;;;;;;;;;;5061377;28;20055;-84
2023/10/26 02:31:31;;;;;;;1999.90;999.90;;;;;;;;;;5063872;28;20043;-84
2023/10/26 02:33:58;;;;;;;1999.90;999.90;;;;;;;;;;5053256;28;20049;-86
2023/10/26 02:36:24;;;;;;;1999.90;999.90;;;;;;;;;;5062274;28;20048;-83
2023/10/26 02:38:51;;;;;;;1999.90;999.90;;;;;;;;;;5056730;28;20504;-87
2023/10/26 02:41:17;;;;;;;1999.90;999.90;;;;;;;;;;5060498;28;20462;-84
2023/10/26 02:43:44;;;;;;;1999.90;999.90;;;;;;;;;;5059220;28;20409;-85
2023/10/26 02:46:11;;;;;;;1999.90;999.90;;;;;;;;;;5056940;28;20060;-85
2023/10/26 02:48:39;;;;;;;1999.90;999.90;;;;;;;;;;5059173;28;20049;-86
2023/10/26 02:51:06;;;;;;;1999.90;999.90;;;;;;;;;;5058660;28;20071;-85
2023/10/26 02:53:33;;;;;;;1999.90;999.90;;;;;;;;;;5059789;28;20135;-84
2023/10/26 02:56:00;;;;;;;1999.90;999.90;;;;;;;;;;5059682;28;20429;-86
2023/10/26 02:58:26;;;;;;;1999.90;999.90;;;;;;;;;;5060024;28;20047;-85
2023/10/26 03:00:53;;;;;;;1999.90;999.90;;;;;;;;;;5056939;28;20053;-84
2023/10/26 03:03:20;;;;;;;1999.90;999.90;;;;;;;;;;5060910;28;20045;-86
2023/10/26 03:05:48;;;;;;;1999.90;999.90;;;;;;;;;;5058606;28;20045;-84
2023/10/26 03:08:15;;;;;;;1999.90;999.90;;;;;;;;;;5056398;28;20049;-84
2023/10/26 03:10:41;;;;;;;1999.90;999.90;;;;;;;;;;5057963;28;20044;-87
2023/10/26 03:13:08;;;;;;;1999.90;999.90;;;;;;;;;;5059105;28;20080;-84
2023/10/26 03:15:35;;;;;;;1999.90;999.90;;;;;;;;;;5058504;28;20485;-85
2023/10/26 03:18:01;;;;;;;1999.90;999.90;;;;;;;;;;5056618;28;20055;-84
2023/10/26 03:20:28;;;;;;;1999.90;999.90;;;;;;;;;;5059509;28;20057;-84
2023/10/26 03:22:56;;;;;;;1999.90;999.90;;;;;;;;;;5057171;28;20049;-86
2023/10/26 03:25:22;;;;;;;1999.90;999.90;;;;;;;;;;5057744;28;20037;-85
2023/10/26 03:27:49;;;;;;;1999.90;999.90;;;;;;;;;;5061547;28;20049;-84
2023/10/26 03:30:15;;;;;;;1999.90;999.90;;;;;;;;;;5061219;28;20048;-85
2023/10/26 03:32:41;;;;;;;1999.90;999.90;;;;;;;;;;5063494;28;20129;-85
2023/10/26 03:35:09;;;;;;;1999.90;999.90;;;;;;;;;;5066587;28;20076;-86
2023/10/26 03:37:36;;;;;;;1999.90;999.90;;;;;;;;;;5061434;28;20488;-84
2023/10/26 03:40:05;;;;;;;1999.90;999.90;;;;;;;;;;5061716;28;20049;-84
2023/10/26 03:42:31;;;;;;;1999.90;999.90;;;;;;;;;;5063432;28;20127;-87
2023/10/26 03:44:58;;;;;;;1999.90;999.90;;;;;;;;;;5061326;28;20048;-86
2023/10/26 03:47:25;;;;;;;1999.90;999.90;;;;;;;;;;5064620;28;20049;-86
2023/10/26 03:49:52;;;;;;;1999.90;999.90;;;;;;;;;;5065492;28;20045;-84
2023/10/26 03:52:19;;;;;;;1999.90;999.90;;;;;;;;;;5057665;28;20079;-85
2023/10/26 03:54:45;;;;;;;1999.90;999.90;;;;;;;;;;5062709;28;20041;-84
2023/10/26 03:57:14;;;;;;;1999.90;999.90;;;;;;;;;;5063588;28;20076;-85
2023/10/26 03:59:41;;;;;;;1999.90;999.90;;;;;;;;;;5064877;28;20411;-85
2023/10/26 04:02:07;;;;;;;1999.90;999.90;;;;;;;;;;5071397;28;20583;-85
2023/10/26 04:04:34;;;;;;;1999.90;999.90;;;;;;;;;;5066941;28;20051;-86
2023/10/26 04:07:00;;;;;;;1999.90;999.90;;;;;;;;;;5069834;28;20041;-86
2023/10/26 04:09:27;;;;;;;1999.90;999.90;;;;;;;;;;5069531;28;20488;-85
2023/10/26 04:11:54;;;;;;;1999.90;999.90;;;;;;;;;;5068840;28;20068;-84
2023/10/26 04:14:22;;;;;;;1999.90;999.90;;;;;;;;;;5065598;28;20053;-85
2023/10/26 04:16:49;;;;;;;1999.90;999.90;;;;;;;;;;5063849;28;20052;-86
2023/10/26 04:19:16;;;;;;;1999.90;999.90;;;;;;;;;;5061878;28;20045;-84
2023/10/26 04:21:43;;;;;;;1999.90;999.90;;;;;;;;;;5060740;28;20056;-85
2023/10/26 04:24:09;;;;;;;1999.90;999.90;;;;;;;;;;5056607;28;20041;-85
2023/10/26 04:26:36;;;;;;;1999.90;999.90;;;;;;;;;;5062338;28;20040;-85
2023/10/26 04:29:02;;;;;;;1999.90;999.90;;;;;;;;;;5063127;28;20481;-85
2023/10/26 04:31:30;;;;;;;1999.90;999.90;;;;;;;;;;5062742;28;20041;-85
2023/10/26 04:33:58;;;;;;;1999.90;999.90;;;;;;;;;;5061772;28;20131;-84
2023/10/26 04:36:25;;;;;;;1999.90;999.90;;;;;;;;;;5063280;28;20048;-85
2023/10/26 04:38:51;;;;;;;1999.90;999.90;;;;;;;;;;5063695;28;20049;-85
2023/10/26 04:41:18;;;;;;;1999.90;999.90;;;;;;;;;;5058630;28;20056;-86
2023/10/26 04:43:44;;;;;;;1999.90;999.90;;;;;;;;;;5060371;28;20044;-85
2023/10/26 04:46:11;;;;;;;1999.90;999.90;;;;;;;;;;5063163;28;20044;-85
2023/10/26 04:48:39;;;;;;;1999.90;999.90;;;;;;;;;;5063449;28;20413;-86
2023/10/26 04:51:06;;;;;;;1999.90;999.90;;;;;;;;;;5064833;28;20413;-86
2023/10/26 04:53:33;;;;;;;1999.90;999.90;;;;;;;;;;5062383;28;20043;-85
2023/10/26 04:55:59;;;;;;;1999.90;999.90;;;;;;;;;;5059469;28;20484;-86
2023/10/26 04:58:26;;;;;;;1999.90;999.90;;;;;;;;;;5064129;28;20425;-85
2023/10/26 05:00:52;;;;;;;1999.90;999.90;;;;;;;;;;5066444;28;20049;-86
2023/10/26 05:03:19;;;;;;;1999.90;999.90;;;;;;;;;;5061419;28;20044;-87
2023/10/26 05:05:46;;;;;;;1999.90;999.90;;;;;;;;;;5061591;28;20045;-85
2023/10/26 05:08:13;;;;;;;1999.90;999.90;;;;;;;;;;5056810;28;20457;-85
2023/10/26 05:10:40;;;;;;;1999.90;999.90;;;;;;;;;;5063917;28;20064;-86
2023/10/26 05:13:08;;;;;;;1999.90;999.90;;;;;;;;;;5066715;28;20052;-85
2023/10/26 05:15:35;;;;;;;1999.90;999.90;;;;;;;;;;5059984;28;20804;-84
2023/10/26 05:18:03;;;;;;;1999.90;999.90;;;;;;;;;;5059822;28;20060;-86
2023/10/26 05:20:32;;;;;;;1999.90;999.90;;;;;;;;;;5061284;28;20049;-84
2023/10/26 05:23:01;;;;;;;1999.90;999.90;;;;;;;;;;5054872;28;20072;-85
2023/10/26 05:25:28;;;;;;;1999.90;999.90;;;;;;;;;;5060282;28;20047;-87
2023/10/26 05:27:54;;;;;;;1999.90;999.90;;;;;;;;;;5061282;28;20045;-84
2023/10/26 05:30:21;;;;;;;1999.90;999.90;;;;;;;;;;5058812;28;20051;-84
2023/10/26 05:32:48;;;;;;;1999.90;999.90;;;;;;;;;;5061135;28;20053;-85
2023/10/26 05:35:14;;;;;;;1999.90;999.90;;;;;;;;;;5059441;28;20056;-84
2023/10/26 05:37:41;;;;;;;1999.90;999.90;;;;;;;;;;5060882;28;20098;-84
2023/10/26 05:40:11;;;;;;;1999.90;999.90;;;;;;;;;;5061820;28;20045;-86
2023/10/26 05:42:38;;;;;;;1999.90;999.90;;;;;;;;;;5059775;28;20447;-85
2023/10/26 05:45:05;;;;;;;1999.90;999.90;;;;;;;;;;5058584;28;20408;-85
2023/10/26 05:47:32;;;;;;;1999.90;999.90;;;;;;;;;;5060864;28;20071;-84
2023/10/26 05:49:58;;;;;;;1999.90;999.90;;;;;;;;;;5059172;28;20060;-85
2023/10/26 05:52:25;;;;;;;1999.90;999.90;;;;;;;;;;5058400;28;20416;-84
2023/10/26 05:54:55;;;;;;;1999.90;999.90;;;;;;;;;;5061749;28;20147;-84
2023/10/26 05:57:23;;;;;;;1999.90;999.90;;;;;;;;;;5061088;28;20056;-85
2023/10/26 05:59:49;;;;;;;1999.90;999.90;;;;;;;;;;5059428;28;20044;-85
2023/10/26 06:02:16;;;;;;;1999.90;999.90;;;;;;;;;;5058107;28;20057;-85
2023/10/26 06:04:42;;;;;;;1999.90;999.90;;;;;;;;;;5062972;28;20439;-85
2023/10/26 06:07:09;;;;;;;1999.90;999.90;;;;;;;;;;5056648;28;20399;-84
2023/10/26 06:09:35;;;;;;;1999.90;999.90;;;;;;;;;;5063759;28;20052;-87
2023/10/26 06:12:02;;;;;;;1999.90;999.90;;;;;;;;;;5055663;28;20049;-84
2023/10/26 06:14:29;;;;;;;1999.90;999.90;;;;;;;;;;5055612;28;20417;-83
2023/10/26 06:16:56;;;;;;;1999.90;999.90;;;;;;;;;;5058701;28;20048;-84
2023/10/26 06:19:22;;;;;;;1999.90;999.90;;;;;;;;;;5059345;28;20044;-83
2023/10/26 06:21:49;;;;;;;1999.90;999.90;;;;;;;;;;5061204;28;20056;-84
2023/10/26 06:24:16;;;;;;;1999.90;999.90;;;;;;;;;;5057697;28;20052;-83
2023/10/26 06:26:42;;;;;;;1999.90;999.90;;;;;;;;;;5056592;28;20045;-84
2023/10/26 06:29:09;;;;;;;1999.90;999.90;;;;;;;;;;5058121;28;20531;-83
2023/10/26 06:31:36;;;;;;;1999.90;999.90;;;;;;;;;;5059818;28;20044;-79
2023/10/26 06:34:03;;;;;;;1999.90;999.90;;;;;;;;;;5059875;28;20048;-82
2023/10/26 06:36:29;;;;;;;1999.90;999.90;;;;;;;;;;5057828;28;20481;-81
2023/10/26 06:38:56;;;;;;;1999.90;999.90;;;;;;;;;;5059354;28;20044;-80
2023/10/26 06:41:23;;;;;;;1999.90;999.90;;;;;;;;;;5060102;28;20082;-80
2023/10/26 06:43:49;;;;;;;1999.90;999.90;;;;;;;;;;5058387;28;20052;-79
2023/10/26 06:46:16;;;;;;;1999.90;999.90;;;;;;;;;;5056465;28;20396;-80
2023/10/26 06:48:44;;;;;;;1999.90;999.90;;;;;;;;;;5060158;28;20136;-80
2023/10/26 06:51:10;;;;;;;1999.90;999.90;;;;;;;;;;5057616;28;20044;-80
2023/10/26 06:53:37;;;;;;;1999.90;999.90;;;;;;;;;;5059698;28;20044;-79
2023/10/26 06:56:10;;;;;;;1999.90;999.90;;;;;;;;;;5057771;28;20467;-80
2023/10/26 06:58:37;;;;;;;1999.90;999.90;;;;;;;;;;5056989;28;20047;-80
2023/10/26 07:01:05;;;;;;;1999.90;999.90;;;;;;;;;;5060770;28;20044;-81
2023/10/26 07:03:33;;;;;;;1999.90;999.90;;;;;;;;;;5062261;28;20264;-80
2023/10/26 07:06:02;;;;;;;1999.90;999.90;;;;;;;;;;5059131;28;20056;-80
2023/10/26 07:08:28;;;;;;;1999.90;999.90;;;;;;;;;;5060491;28;20049;-82
2023/10/26 07:10:55;;;;;;;1999.90;999.90;;;;;;;;;;5059135;28;20059;-81
2023/10/26 07:13:22;;;;;;;1999.90;999.90;;;;;;;;;;5059453;28;20083;-81
2023/10/26 07:15:49;;;;;;;1999.90;999.90;;;;;;;;;;5063658;28;20048;-80
2023/10/26 07:18:18;;;;;;;1999.90;999.90;;;;;;;;;;5059588;28;20080;-81
2023/10/26 07:20:44;;;;;;;1999.90;999.90;;;;;;;;;;5057046;28;20056;-81
2023/10/26 07:23:14;;;;;;;1999.90;999.90;;;;;;;;;;5057180;28;20517;-81
2023/10/26 07:25:40;;;;;;;1999.90;999.90;;;;;;;;;;5059466;28;20045;-81
2023/10/26 07:28:07;;;;;;;1999.90;999.90;;;;;;;;;;5059590;28;20045;-82
2023/10/26 07:30:39;;;;;;;1999.90;999.90;;;;;;;;;;5055552;28;20521;-82
2023/10/26 07:33:05;;;;;;;1999.90;999.90;;;;;;;;;;5058016;28;20747;-81
2023/10/26 07:35:34;;;;;;;1999.90;999.90;;;;;;;;;;5055434;28;20041;-82
2023/10/26 07:38:00;;;;;;;1999.90;999.90;;;;;;;;;;5059107;28;20128;-81
2023/10/26 07:40:28;;;;;;;1999.90;999.90;;;;;;;;;;5058789;28;20053;-81
2023/10/26 07:42:55;;;;;;;1999.90;999.90;;;;;;;;;;5056115;28;20045;-82
2023/10/26 07:45:21;;;;;;;1999.90;999.90;;;;;;;;;;5059715;28;20416;-82
2023/10/26 07:47:48;;;;;;;1999.90;999.90;;;;;;;;;;5058276;28;20060;-81
2023/10/26 07:50:19;;;;;;;1999.90;999.90;;;;;;;;;;5059538;28;20045;-83
2023/10/26 07:52:46;;;;;;;1999.90;999.90;;;;;;;;;;5054562;28;20144;-82
2023/10/26 07:55:12;;;;;;;1999.90;999.90;;;;;;;;;;5061395;28;20041;-81
2023/10/26 07:57:41;;;;;;;1999.90;999.90;;;;;;;;;;5059428;28;20052;-81
2023/10/26 08:00:11;;;;;;;1999.90;999.90;;;;;;;;;;5061201;28;20045;-82
2023/10/26 08:02:37;;;;;;;1999.90;999.90;;;;;;;;;;5058689;28;20040;-82
2023/10/26 08:05:04;;;;;;;1999.90;999.90;;;;;;;;;;5053509;28;20053;-80
2023/10/26 08:07:31;;;;;;;1999.90;999.90;;;;;;;;;;5060549;28;20045;-80
2023/10/26 08:09:57;;;;;;;1999.90;999.90;;;;;;;;;;5060113;28;20060;-80
2023/10/26 08:12:24;;;;;;;1999.90;999.90;;;;;;;;;;5060026;28;20484;-82
2023/10/26 08:14:53;;;;;;;1999.90;999.90;;;;;;;;;;5063902;28;20481;-81
2023/10/26 08:17:20;;;;;;;1999.90;999.90;;;;;;;;;;5058910;28;20508;-80
2023/10/26 08:19:47;;;;;;;1999.90;999.90;;;;;;;;;;5062881;28;20053;-80
2023/10/26 08:22:13;;;;;;;1999.90;999.90;;;;;;;;;;5059653;28;20136;-82
2023/10/26 08:24:40;;;;;;;1999.90;999.90;;;;;;;;;;5060783;28;20052;-81
2023/10/26 08:27:06;;;;;;;1999.90;999.90;;;;;;;;;;5061792;28;20056;-81
2023/10/26 08:29:33;;;;;;;1999.90;999.90;;;;;;;;;;5059280;28;20055;-81
2023/10/26 08:32:01;;;;;;;1999.90;999.90;;;;;;;;;;5062306;28;20041;-81
2023/10/26 08:34:28;;;;;;;1999.90;999.90;;;;;;;;;;5062567;28;20106;-81
2023/10/26 08:36:54;;;;;;;1999.90;999.90;;;;;;;;;;5056718;28;20059;-81
2023/10/26 08:39:21;;;;;;;1999.90;999.90;;;;;;;;;;5060402;28;20045;-80
2023/10/26 08:41:51;;;;;;;1999.90;999.90;;;;;;;;;;5057500;28;20064;-83
2023/10/26 08:44:18;;;;;;;1999.90;999.90;;;;;;;;;;5062296;28;20047;-82
2023/10/26 08:46:45;;;;;;;1999.90;999.90;;;;;;;;;;5060142;28;20044;-83
2023/10/26 08:49:14;;;;;;;1999.90;999.90;;;;;;;;;;5060537;28;20143;-80
2023/10/26 08:51:40;;;;;;;1999.90;999.90;;;;;;;;;;5060295;28;20406;-82
2023/10/26 08:54:07;;;;;;;1999.90;999.90;;;;;;;;;;5057792;28;20110;-82
2023/10/26 08:56:33;;;;;;;1999.90;999.90;;;;;;;;;;5065104;28;20048;-83
2023/10/26 08:59:02;;;;;;;1999.90;999.90;;;;;;;;;;5063356;28;20051;-83
2023/10/26 09:01:29;;;;;;;1999.90;999.90;;;;;;;;;;5060682;28;20045;-82
2023/10/26 09:03:55;;;;;;;1999.90;999.90;;;;;;;;;;5063060;28;20487;-82
2023/10/26 09:06:23;;;;;;;1999.90;999.90;;;;;;;;;;5059033;28;20060;-84
2023/10/26 09:09:01;;;;;;;1999.90;999.90;;;;;;;;;;5062859;28;20127;-83
2023/10/26 09:11:28;;;;;;;1999.90;999.90;;;;;;;;;;5064039;28;20453;-82
2023/10/26 09:13:54;;;;;;;1999.90;999.90;;;;;;;;;;5064006;28;20058;-82
2023/10/26 09:16:35;;;;;;;1999.90;999.90;;;;;;;;;;5062477;28;20062;-83
2023/10/26 09:19:01;;;;;;;1999.90;999.90;;;;;;;;;;5061903;28;20404;-82
2023/10/26 09:21:29;;;;;;;1999.90;999.90;;;;;;;;;;5058404;28;20044;-80
2023/10/26 09:23:56;;;;;;;1999.90;999.90;;;;;;;;;;5055817;28;20438;-82
2023/10/26 09:26:22;;;;;;;1999.90;999.90;;;;;;;;;;5053816;28;20045;-83
2023/10/26 09:28:50;;;;;;;1999.90;999.90;;;;;;;;;;5063849;28;20052;-81
2023/10/26 09:31:17;;;;;;;1999.90;999.90;;;;;;;;;;5059928;28;20051;-81
2023/10/26 09:33:43;;;;;;;1999.90;999.90;;;;;;;;;;5057685;28;20129;-83
2023/10/26 09:36:11;;;;;;;1999.90;999.90;;;;;;;;;;5059664;28;20049;-82
2023/10/26 09:38:39;;;;;;;1999.90;999.90;;;;;;;;;;5058319;28;20040;-84
2023/10/26 09:41:08;;;;;;;1999.90;999.90;;;;;;;;;;5057864;28;20051;-81
2023/10/26 09:43:35;;;;;;;1999.90;999.90;;;;;;;;;;5057303;28;20053;-84
2023/10/26 09:46:02;;;;;;;1999.90;999.90;;;;;;;;;;5061079;28;20049;-84
2023/10/26 09:48:28;;;;;;;1999.90;999.90;;;;;;;;;;5061636;28;20048;-83
2023/10/26 09:51:00;;;;;;;1999.90;999.90;;;;;;;;;;5061147;28;20488;-82
2023/10/26 09:53:30;;;;;;;1999.90;999.90;;;;;;;;;;5062638;28;20055;-83
2023/10/26 09:55:58;;;;;;;1999.90;999.90;;;;;;;;;;5058104;28;20055;-83
2023/10/26 09:58:26;;;;;;;1999.90;999.90;;;;;;;;;;5061972;28;20044;-83
2023/10/26 10:00:53;;;;;;;1999.90;999.90;;;;;;;;;;5056688;28;20045;-82
2023/10/26 10:03:19;;;;;;;1999.90;999.90;;;;;;;;;;5058339;28;20055;-83
2023/10/26 10:05:47;;;;;;;1999.90;999.90;;;;;;;;;;5065773;28;20135;-82
2023/10/26 10:08:14;;;;;;;1999.90;999.90;;;;;;;;;;5059421;28;20283;-83
2023/10/26 10:11:16;;;;;;;1999.90;999.90;;;;;;;;;;5062391;28;20049;-82
2023/10/26 10:13:42;;;;;;;1999.90;999.90;;;;;;;;;;5057270;28;20044;-81
2023/10/26 10:16:54;;;;;;;1999.90;999.90;;;;;;;;;;5056709;28;20041;-83
2023/10/26 10:19:22;;;;;;;1999.90;999.90;;;;;;;;;;5057569;28;20055;-82
2023/10/26 10:21:51;;;;;;;1999.90;999.90;;;;;;;;;;5060481;28;20051;-83
2023/10/26 10:24:50;;;;;;;1999.90;999.90;;;;;;;;;;5059930;28;20045;-83
2023/10/26 10:27:19;;;;;;;1999.90;999.90;;;;;;;;;;5054338;28;20045;-83
2023/10/26 10:29:45;;;;;;;1999.90;999.90;;;;;;;;;;5060423;28;20036;-82
2023/10/26 10:32:12;;;;;;;1999.90;999.90;;;;;;;;;;5059537;28;20063;-81
2023/10/26 10:34:43;;;;;;;1999.90;999.90;;;;;;;;;;5057766;28;20056;-82
2023/10/26 10:37:12;;;;;;;1999.90;999.90;;;;;;;;;;5062826;28;20491;-81
2023/10/26 10:39:40;;;;;;;1999.90;999.90;;;;;;;;;;5057769;28;20140;-83
2023/10/26 10:42:10;;;;;;;1999.90;999.90;;;;;;;;;;5056067;28;20053;-81
2023/10/26 10:44:38;;;;;;;1999.90;999.90;;;;;;;;;;5061198;28;20141;-82
2023/10/26 10:47:05;;;;;;;1999.90;999.90;;;;;;;;;;5058007;28;20041;-81
2023/10/26 10:49:32;;;;;;;1999.90;999.90;;;;;;;;;;5058182;28;20508;-81
2023/10/26 10:51:58;;;;;;;1999.90;999.90;;;;;;;;;;5058912;28;20069;-81
2023/10/26 10:54:25;;;;;;;1999.90;999.90;;;;;;;;;;5061669;28;20068;-80
2023/10/26 10:56:52;;;;;;;1999.90;999.90;;;;;;;;;;5060452;28;20076;-82
2023/10/26 10:59:19;;;;;;;1999.90;999.90;;;;;;;;;;5059228;28;20048;-82
2023/10/26 11:01:48;;;;;;;1999.90;999.90;;;;;;;;;;5061442;28;20040;-81
2023/10/26 11:04:14;;;;;;;1999.90;999.90;;;;;;;;;;5056517;28;20417;-82
2023/10/26 11:06:49;;;;;;;1999.90;999.90;;;;;;;;;;5058347;28;20044;-82
2023/10/26 11:09:22;;;;;;;1999.90;999.90;;;;;;;;;;5062368;28;20049;-83
2023/10/26 11:11:49;;;;;;;1999.90;999.90;;;;;;;;;;5055338;28;20049;-82
2023/10/26 11:14:17;;;;;;;1999.90;999.90;;;;;;;;;;5062923;28;20040;-82
2023/10/26 11:16:43;;;;;;;1999.90;999.90;;;;;;;;;;5059452;28;20049;-83
2023/10/26 11:19:11;;;;;;;1999.90;999.90;;;;;;;;;;5058897;28;20049;-82
2023/10/26 11:21:39;;;;;;;1999.90;999.90;;;;;;;;;;5060475;28;20500;-83
2023/10/26 11:24:06;;;;;;;1999.90;999.90;;;;;;;;;;5057157;28;20040;-84
2023/10/26 11:26:33;;;;;;;1999.90;999.90;;;;;;;;;;5055614;28;20040;-82
2023/10/26 11:29:01;;;;;;;1999.90;999.90;;;;;;;;;;5060805;28;20622;-82
2023/10/26 11:31:41;;;;;;;1999.90;999.90;;;;;;;;;;5055534;28;20059;-82
2023/10/26 11:34:08;;;;;;;1999.90;999.90;;;;;;;;;;5056854;28;20094;-82
2023/10/26 11:36:37;;;;;;;1999.90;999.90;;;;;;;;;;5057395;28;20430;-81
2023/10/26 11:39:04;;;;;;;1999.90;999.90;;;;;;;;;;5057349;28;20057;-81
2023/10/26 11:41:33;;;;;;;1999.90;999.90;;;;;;;;;;5055911;28;20049;-82
2023/10/26 11:43:59;;;;;;;1999.90;999.90;;;;;;;;;;5063137;28;20076;-82
2023/10/26 11:46:34;;;;;;;1999.90;999.90;;;;;;;;;;5059188;28;20798;-82
2023/10/26 11:49:01;;;;;;;1999.90;999.90;;;;;;;;;;5060164;28;20044;-82
2023/10/26 11:51:29;;;;;;;1999.90;999.90;;;;;;;;;;5061574;28;20063;-81
2023/10/26 11:53:57;;;;;;;1999.90;999.90;;;;;;;;;;5061556;28;20047;-82
2023/10/26 11:56:24;;;;;;;1999.90;999.90;;;;;;;;;;5060087;28;20045;-84
2023/10/26 11:58:50;;;;;;;1999.90;999.90;;;;;;;;;;5061082;28;20044;-82
2023/10/26 12:01:17;;;;;;;1999.90;999.90;;;;;;;;;;5063333;28;20049;-81
2023/10/26 12:03:45;;;;;;;1999.90;999.90;;;;;;;;;;5060940;28;20048;-82
2023/10/26 12:06:11;;;;;;;1999.90;999.90;;;;;;;;;;5061735;28;20048;-83
2023/10/26 12:08:38;;;;;;;1999.90;999.90;;;;;;;;;;5061873;28;20053;-84
2023/10/26 12:11:06;;;;;;;1999.90;999.90;;;;;;;;;;5065105;28;20055;-82
2023/10/26 12:13:33;;;;;;;1999.90;999.90;;;;;;;;;;5063471;28;20041;-82
2023/10/26 12:16:00;;;;;;;1999.90;999.90;;;;;;;;;;5059552;28;20114;-85
2023/10/26 12:18:26;;;;;;;1999.90;999.90;;;;;;;;;;5061000;28;20055;-84
2023/10/26 12:20:53;;;;;;;1999.90;999.90;;;;;;;;;;5063104;28;20404;-84
2023/10/26 12:23:20;;;;;;;1999.90;999.90;;;;;;;;;;5060060;28;20048;-83
2023/10/26 12:25:46;;;;;;;1999.90;999.90;;;;;;;;;;5064722;28;20416;-79
2023/10/26 12:28:14;;;;;;;1999.90;999.90;;;;;;;;;;5060769;28;20040;-83
2023/10/26 12:30:41;;;;;;;1999.90;999.90;;;;;;;;;;5063370;28;20127;-85
2023/10/26 12:33:07;;;;;;;1999.90;999.90;;;;;;;;;;5062899;28;20048;-82
2023/10/26 12:35:33;;;;;;;1999.90;999.90;;;;;;;;;;5058954;28;20512;-84
2023/10/26 12:38:00;;;;;;;1999.90;999.90;;;;;;;;;;5061659;28;20055;-81
2023/10/26 12:40:26;;;;;;;1999.90;999.90;;;;;;;;;;5060467;28;20501;-82
2023/10/26 12:42:53;;;;;;;1999.90;999.90;;;;;;;;;;5060141;28;20064;-81
2023/10/26 12:45:21;;;;;;;1999.90;999.90;;;;;;;;;;5063343;28;20240;-81
2023/10/26 12:47:47;;;;;;;1999.90;999.90;;;;;;;;;;5061017;28;20055;-82
2023/10/26 12:50:14;;;;;;;1999.90;999.90;;;;;;;;;;5058281;28;20449;-81
2023/10/26 12:52:40;;;;;;;1999.90;999.90;;;;;;;;;;5059950;28;20049;-81
2023/10/26 12:55:07;;;;;;;1999.90;999.90;;;;;;;;;;5059386;28;20788;-82
2023/10/26 12:57:34;;;;;;;1999.90;999.90;;;;;;;;;;5062378;28;20515;-83
2023/10/26 13:00:01;;;;;;;1999.90;999.90;;;;;;;;;;5061756;28;20052;-81
2023/10/26 13:02:29;;;;;;;1999.90;999.90;;;;;;;;;;5058800;28;20047;-83
2023/10/26 13:04:55;;;;;;;1999.90;999.90;;;;;;;;;;5060083;28;20052;-83
2023/10/26 13:07:22;;;;;;;1999.90;999.90;;;;;;;;;;5062477;28;20048;-82
2023/10/26 13:09:48;;;;;;;1999.90;999.90;;;;;;;;;;5060270;28;20145;-83
2023/10/26 13:12:15;;;;;;;1999.90;999.90;;;;;;;;;;5059834;28;20044;-82
2023/10/26 13:14:42;;;;;;;1999.90;999.90;;;;;;;;;;5064060;28;20049;-83
2023/10/26 13:17:08;;;;;;;1999.90;999.90;;;;;;;;;;5063994;28;20048;-82
2023/10/26 13:19:36;;;;;;;1999.90;999.90;;;;;;;;;;5061166;28;20409;-82
2023/10/26 13:22:03;;;;;;;1999.90;999.90;;;;;;;;;;5064266;28;20048;-81
2023/10/26 13:24:30;;;;;;;1999.90;999.90;;;;;;;;;;5062511;28;20047;-82
2023/10/26 13:26:57;;;;;;;1999.90;999.90;;;;;;;;;;5066252;28;20052;-82
2023/10/26 13:29:24;;;;;;;1999.90;999.90;;;;;;;;;;5060745;28;20055;-84
2023/10/26 13:31:50;;;;;;;1999.90;999.90;;;;;;;;;;5063209;28;20510;-82
2023/10/26 13:34:17;;;;;;;1999.90;999.90;;;;;;;;;;5060396;28;20044;-82
2023/10/26 13:36:45;;;;;;;1999.90;999.90;;;;;;;;;;5062820;28;20055;-82
2023/10/26 13:39:11;;;;;;;1999.90;999.90;;;;;;;;;;5057488;28;20527;-83
2023/10/26 13:41:38;;;;;;;1999.90;999.90;;;;;;;;;;5059572;28;20056;-83
2023/10/26 13:44:04;;;;;;;1999.90;999.90;;;;;;;;;;5061955;28;20049;-82